LXJ35 CYYZ-KOPF
Flight info
| Callsign | LXJ35 |
|---|---|
| Flight time | N/A |
| Altitude | 43000 |
| Route | BETES3 AIRRA Q103 SLOJO DCT EFFAY Q83 JEVED Q97 PRMUS CUUDA3 |
| Aircraft | GLF6/M-SBDE2E3FGHIJ4J5M1RWXY/LB1D1 |
Departure
| Time | 2026-05-05 22:03 |
|---|---|
| Airport | Toronto Pearson International Airport (CYYZ) |
Arrival
| Time | N/A |
|---|---|
| Airport | Miami-Opa Locka Executive Airport (KOPF) |
| Time | Latitude | Longitude | Altitude | Speed | Heading |
|---|---|---|---|---|---|
| 2026-05-05 21:56 | 43.67518 | -79.62673 | 558 ft | 0 kts | 131° |
| 2026-05-05 21:57 | 43.67517 | -79.62672 | 558 ft | 2 kts | 131° |
| 2026-05-05 21:57 | 43.67498 | -79.62641 | 565 ft | 7 kts | 131° |
| 2026-05-05 21:57 | 43.67456 | -79.62582 | 558 ft | 10 kts | 136° |
| 2026-05-05 21:57 | 43.67449 | -79.62493 | 561 ft | 11 kts | 53° |
| 2026-05-05 21:58 | 43.67500 | -79.62415 | 558 ft | 11 kts | 49° |
| 2026-05-05 21:58 | 43.67508 | -79.62329 | 563 ft | 9 kts | 117° |
| 2026-05-05 21:58 | 43.67465 | -79.62267 | 559 ft | 9 kts | 137° |
| 2026-05-05 21:58 | 43.67412 | -79.62206 | 558 ft | 10 kts | 142° |
| 2026-05-05 21:59 | 43.67356 | -79.62154 | 559 ft | 9 kts | 149° |
| 2026-05-05 21:59 | 43.67324 | -79.62084 | 563 ft | 9 kts | 130° |
| 2026-05-05 21:59 | 43.67277 | -79.62017 | 557 ft | 11 kts | 133° |
| 2026-05-05 21:59 | 43.67215 | -79.61939 | 555 ft | 13 kts | 144° |
| 2026-05-05 22:00 | 43.67149 | -79.61856 | 559 ft | 13 kts | 134° |
| 2026-05-05 22:00 | 43.67076 | -79.61761 | 557 ft | 16 kts | 138° |
| 2026-05-05 22:00 | 43.66999 | -79.61655 | 554 ft | 15 kts | 129° |
| 2026-05-05 22:00 | 43.66995 | -79.61617 | 561 ft | 3 kts | 69° |
| 2026-05-05 22:01 | 43.66999 | -79.61604 | 553 ft | 2 kts | 60° |
| 2026-05-05 22:01 | 43.67029 | -79.61558 | 558 ft | 11 kts | 46° |
| 2026-05-05 22:01 | 43.67119 | -79.61502 | 553 ft | 12 kts | 347° |
| 2026-05-05 22:01 | 43.67186 | -79.61596 | 553 ft | 26 kts | 317° |
| 2026-05-05 22:02 | 43.67494 | -79.61994 | 560 ft | 96 kts | 316° |
| 2026-05-05 22:02 | 43.68143 | -79.62845 | 565 ft | 158 kts | 316° |
| 2026-05-05 22:02 | 43.69042 | -79.64021 | 870 ft | 198 kts | 316° |
| 2026-05-05 22:02 | 43.70096 | -79.65782 | 881 ft | 266 kts | 296° |
| 2026-05-05 22:03 | 43.70702 | -79.68281 | 2420 ft | 290 kts | 284° |
| 2026-05-05 22:03 | 43.70794 | -79.71321 | 2887 ft | 332 kts | 261° |
| 2026-05-05 22:03 | 43.69935 | -79.74120 | 3362 ft | 316 kts | 235° |
| 2026-05-05 22:03 | 43.68426 | -79.76249 | 3872 ft | 297 kts | 226° |
| 2026-05-05 22:04 | 43.66906 | -79.78007 | 4350 ft | 282 kts | 219° |
| 2026-05-05 22:04 | 43.65255 | -79.79341 | 4842 ft | 268 kts | 211° |
| 2026-05-05 22:04 | 43.63550 | -79.80234 | 5313 ft | 256 kts | 202° |
| 2026-05-05 22:04 | 43.61835 | -79.80716 | 5783 ft | 248 kts | 194° |
| 2026-05-05 22:05 | 43.60133 | -79.80765 | 6263 ft | 241 kts | 185° |
| 2026-05-05 22:05 | 43.58386 | -79.80401 | 6746 ft | 269 kts | 176° |
| 2026-05-05 22:05 | 43.56513 | -79.79753 | 7270 ft | 283 kts | 176° |
| 2026-05-05 22:05 | 43.54557 | -79.79475 | 7794 ft | 287 kts | 187° |
| 2026-05-05 22:06 | 43.52492 | -79.79306 | 8387 ft | 309 kts | 183° |
| 2026-05-05 22:06 | 43.50260 | -79.79005 | 9492 ft | 334 kts | 182° |
| 2026-05-05 22:06 | 43.47854 | -79.78736 | 10525 ft | 359 kts | 184° |
| 2026-05-05 22:06 | 43.45274 | -79.78518 | 11572 ft | 386 kts | 184° |
| 2026-05-05 22:07 | 43.42499 | -79.78228 | 12609 ft | 415 kts | 182° |
| 2026-05-05 22:07 | 43.39531 | -79.77850 | 13678 ft | 443 kts | 181° |
| 2026-05-05 22:07 | 43.36383 | -79.77525 | 14822 ft | 461 kts | 183° |
| 2026-05-05 22:07 | 43.33123 | -79.77279 | 16323 ft | 478 kts | 182° |
| 2026-05-05 22:08 | 43.29755 | -79.76895 | 17902 ft | 492 kts | 181° |
| 2026-05-05 22:08 | 43.26328 | -79.76875 | 19302 ft | 492 kts | 191° |
| 2026-05-05 22:08 | 43.22919 | -79.77425 | 20756 ft | 495 kts | 194° |
| 2026-05-05 22:08 | 43.19616 | -79.78465 | 22255 ft | 493 kts | 200° |
| 2026-05-05 22:09 | 43.16291 | -79.79633 | 23759 ft | 496 kts | 198° |
| 2026-05-05 22:09 | 43.12903 | -79.80660 | 25161 ft | 495 kts | 199° |
| 2026-05-05 22:09 | 43.09563 | -79.81765 | 26616 ft | 490 kts | 201° |
| 2026-05-05 22:09 | 43.06288 | -79.82978 | 28145 ft | 484 kts | 202° |
| 2026-05-05 22:10 | 43.03038 | -79.84089 | 29765 ft | 478 kts | 201° |
| 2026-05-05 22:10 | 42.99835 | -79.85093 | 31210 ft | 468 kts | 201° |
| 2026-05-05 22:10 | 42.96762 | -79.86119 | 32641 ft | 455 kts | 202° |
| 2026-05-05 22:10 | 42.93713 | -79.87193 | 33777 ft | 452 kts | 202° |
| 2026-05-05 22:11 | 42.90701 | -79.88221 | 34694 ft | 449 kts | 201° |
| 2026-05-05 22:11 | 42.87668 | -79.89213 | 35643 ft | 444 kts | 202° |
| 2026-05-05 22:11 | 42.84683 | -79.90205 | 36618 ft | 437 kts | 203° |
| 2026-05-05 22:11 | 42.81728 | -79.91088 | 37632 ft | 433 kts | 200° |
| 2026-05-05 22:12 | 42.78802 | -79.91809 | 38650 ft | 422 kts | 201° |
| 2026-05-05 22:12 | 42.75954 | -79.92551 | 39452 ft | 409 kts | 202° |
| 2026-05-05 22:12 | 42.73214 | -79.93262 | 40306 ft | 394 kts | 201° |
| 2026-05-05 22:12 | 42.70577 | -79.93926 | 41173 ft | 376 kts | 201° |
| 2026-05-05 22:13 | 42.68078 | -79.94555 | 42050 ft | 354 kts | 202° |
| 2026-05-05 22:13 | 42.65734 | -79.95152 | 42799 ft | 334 kts | 202° |
| 2026-05-05 22:13 | 42.63474 | -79.95749 | 42733 ft | 336 kts | 202° |
| 2026-05-05 22:14 | 42.58924 | -79.96903 | 42829 ft | 328 kts | 202° |
| 2026-05-05 22:14 | 42.54486 | -79.98031 | 42846 ft | 317 kts | 203° |
| 2026-05-05 22:15 | 42.50267 | -79.99098 | 42842 ft | 303 kts | 203° |
| 2026-05-05 22:15 | 42.48227 | -79.99614 | 42829 ft | 293 kts | 204° |
| 2026-05-05 22:15 | 42.46256 | -80.00109 | 42811 ft | 282 kts | 204° |
| 2026-05-05 22:15 | 42.44372 | -80.00587 | 42708 ft | 271 kts | 205° |
| 2026-05-05 22:16 | 42.42523 | -80.01064 | 42322 ft | 271 kts | 205° |
| 2026-05-05 22:16 | 42.40653 | -80.01549 | 41846 ft | 276 kts | 205° |
| 2026-05-05 22:16 | 42.38770 | -80.02013 | 41589 ft | 272 kts | 205° |
| 2026-05-05 22:16 | 42.36936 | -80.02467 | 41433 ft | 264 kts | 206° |
| 2026-05-05 22:17 | 42.35247 | -80.02899 | 41192 ft | 262 kts | 206° |